createdAt,value
2022-10-17T00:00:58.965Z,3.40
2022-10-17T00:03:25.701Z,4.70
2022-10-17T00:05:52.450Z,5.00
2022-10-17T00:08:20.188Z,9.40
2022-10-17T00:11:00.914Z,6.90
2022-10-17T00:13:28.999Z,5.20
2022-10-17T00:15:55.955Z,7.70
2022-10-17T00:18:23.084Z,4.90
2022-10-17T00:20:50.745Z,5.00
2022-10-17T00:23:18.251Z,5.60
2022-10-17T00:25:45.657Z,5.50
2022-10-17T00:28:15.061Z,6.00
2022-10-17T00:30:42.037Z,6.50
2022-10-17T00:33:08.845Z,3.70
2022-10-17T00:35:35.782Z,4.90
2022-10-17T00:38:02.655Z,7.50
2022-10-17T00:40:29.453Z,6.90
2022-10-17T00:42:56.181Z,6.80
2022-10-17T00:45:32.192Z,8.80
2022-10-17T00:48:05.624Z,6.20
2022-10-17T00:50:33.835Z,10.40
2022-10-17T00:53:04.456Z,7.60
2022-10-17T00:55:42.360Z,5.40
2022-10-17T01:00:37.095Z,6.30
2022-10-17T01:03:04.414Z,4.80
2022-10-17T01:05:31.349Z,4.20
2022-10-17T01:07:58.324Z,5.10
2022-10-17T01:10:39.816Z,3.70
2022-10-17T01:13:21.985Z,4.80
2022-10-17T01:16:30.153Z,5.20
2022-10-17T01:19:36.411Z,6.40
2022-10-17T01:22:14.108Z,5.50
2022-10-17T01:25:11.620Z,7.70
2022-10-17T01:31:18.158Z,7.50
2022-10-17T01:33:59.978Z,5.50
2022-10-17T01:37:10.405Z,4.20
2022-10-17T01:39:50.166Z,6.20
2022-10-17T01:42:38.792Z,4.10
2022-10-17T01:47:47.825Z,4.70
2022-10-17T01:50:24.138Z,5.50
2022-10-17T01:53:02.641Z,4.60
2022-10-17T01:55:36.672Z,4.80
2022-10-17T01:58:31.117Z,6.10
2022-10-17T02:01:02.225Z,3.60
2022-10-17T02:03:34.545Z,5.10
2022-10-17T02:06:02.437Z,3.30
2022-10-17T02:11:17.889Z,5.70
2022-10-17T02:14:22.008Z,6.30
2022-10-17T02:17:23.800Z,3.90
2022-10-17T02:20:25.140Z,3.70
2022-10-17T02:22:58.745Z,4.20
2022-10-17T02:25:58.116Z,5.70
2022-10-17T02:28:57.964Z,5.60
2022-10-17T02:31:38.710Z,3.40
2022-10-17T02:34:28.104Z,6.00
2022-10-17T02:37:00.555Z,4.50
2022-10-17T02:39:30.515Z,6.40
2022-10-17T02:42:03.531Z,5.30
2022-10-17T02:44:33.501Z,5.20
2022-10-17T02:47:26.860Z,6.50
2022-10-17T02:49:56.840Z,7.40
2022-10-17T02:52:59.392Z,5.80
2022-10-17T02:55:34.491Z,5.30
2022-10-17T02:58:31.848Z,7.30
2022-10-17T03:00:59.530Z,6.00
2022-10-17T03:06:00.136Z,4.00
2022-10-17T03:08:27.167Z,4.80
2022-10-17T03:10:55.688Z,5.30
2022-10-17T03:13:22.857Z,5.00
2022-10-17T03:15:49.857Z,5.20
2022-10-17T03:18:17.105Z,9.40
2022-10-17T03:20:44.368Z,8.50
2022-10-17T03:23:11.188Z,4.10
2022-10-17T03:25:38.172Z,4.50
2022-10-17T03:28:05.712Z,6.60
2022-10-17T03:30:33.597Z,4.00
2022-10-17T03:33:01.054Z,5.70
2022-10-17T03:35:27.903Z,6.60
2022-10-17T03:37:58.322Z,10.90
2022-10-17T03:40:26.291Z,6.40
2022-10-17T03:42:53.104Z,6.40
2022-10-17T03:45:19.962Z,4.20
2022-10-17T03:47:46.945Z,5.90
2022-10-17T03:50:15.081Z,6.70
2022-10-17T03:52:42.224Z,7.60
2022-10-17T03:55:09.280Z,4.60
2022-10-17T03:57:37.157Z,5.30
2022-10-17T04:00:06.153Z,5.80
2022-10-17T04:02:41.593Z,8.20
2022-10-17T04:05:10.792Z,7.60
2022-10-17T04:07:37.841Z,8.00
2022-10-17T04:10:05.684Z,8.20
2022-10-17T04:12:32.751Z,7.20
2022-10-17T04:14:59.886Z,8.20
2022-10-17T04:17:27.255Z,7.60
2022-10-17T04:19:54.201Z,9.40
2022-10-17T04:22:22.783Z,8.30
2022-10-17T04:24:49.549Z,9.20
2022-10-17T04:27:26.173Z,8.20
2022-10-17T04:29:53.660Z,8.10
2022-10-17T04:32:23.469Z,7.80
2022-10-17T04:34:56.072Z,12.40
2022-10-17T04:37:23.273Z,12.50
2022-10-17T04:39:51.365Z,14.20
2022-10-17T04:42:18.205Z,11.00
2022-10-17T04:44:45.447Z,11.60
2022-10-17T04:47:12.846Z,9.90
2022-10-17T04:52:11.489Z,16.80
2022-10-17T04:54:45.934Z,14.70
2022-10-17T04:57:13.943Z,17.50
2022-10-17T04:59:41.869Z,14.70
2022-10-17T05:02:27.416Z,9.00
2022-10-17T05:04:55.244Z,9.40
2022-10-17T05:07:22.166Z,8.90
2022-10-17T05:10:10.507Z,6.60
2022-10-17T05:12:37.393Z,10.80
2022-10-17T05:15:06.517Z,10.30
2022-10-17T05:17:33.696Z,9.10
2022-10-17T05:20:00.642Z,12.10
2022-10-17T05:22:28.458Z,10.10
2022-10-17T05:24:55.480Z,9.20
2022-10-17T05:27:22.265Z,10.90
2022-10-17T05:29:49.065Z,8.50
2022-10-17T05:32:23.661Z,10.20
2022-10-17T05:34:50.505Z,7.60
2022-10-17T05:37:17.612Z,8.40
2022-10-17T05:39:50.709Z,10.90
2022-10-17T05:42:18.966Z,13.00
2022-10-17T05:44:45.942Z,14.20
2022-10-17T05:47:13.416Z,12.80
2022-10-17T05:49:47.329Z,14.90
2022-10-17T05:52:18.625Z,8.60
2022-10-17T05:55:04.017Z,9.20
2022-10-17T05:57:31.641Z,13.80
2022-10-17T06:02:27.109Z,14.70
2022-10-17T06:04:54.898Z,9.20
2022-10-17T06:07:23.072Z,10.10
2022-10-17T06:09:50.558Z,11.30
2022-10-17T06:12:17.990Z,9.00
2022-10-17T06:14:45.428Z,6.90
2022-10-17T06:17:15.978Z,10.90
2022-10-17T06:19:44.964Z,7.80
2022-10-17T06:22:14.782Z,8.70
2022-10-17T06:24:42.743Z,12.70
2022-10-17T06:29:40.782Z,21.10
2022-10-17T06:32:09.967Z,22.00
2022-10-17T06:34:40.410Z,27.40
2022-10-17T06:37:07.282Z,26.00
2022-10-17T06:39:36.592Z,28.40
2022-10-17T06:42:07.740Z,30.70
2022-10-17T06:44:57.622Z,27.40
2022-10-17T06:47:40.757Z,28.80
2022-10-17T06:50:30.718Z,28.80
2022-10-17T06:53:12.216Z,28.10
2022-10-17T06:56:09.417Z,30.20
2022-10-17T06:58:54.865Z,26.90
2022-10-17T07:01:46.272Z,29.70
2022-10-17T07:04:15.241Z,30.10
2022-10-17T07:06:42.408Z,29.90
2022-10-17T07:09:15.434Z,28.30
2022-10-17T07:11:42.283Z,29.50
2022-10-17T07:14:09.118Z,31.40
2022-10-17T07:16:36.141Z,32.80
2022-10-17T07:19:09.645Z,29.30
2022-10-17T07:21:39.371Z,32.70
2022-10-17T07:24:08.019Z,29.60
2022-10-17T07:26:35.067Z,33.10
2022-10-17T07:29:02.473Z,30.00
2022-10-17T07:31:40.111Z,35.00
2022-10-17T07:34:08.057Z,26.80
2022-10-17T07:36:34.922Z,29.70
2022-10-17T07:39:04.023Z,34.20
2022-10-17T07:41:32.131Z,30.00
2022-10-17T07:43:59.038Z,32.20
2022-10-17T07:46:31.927Z,28.80
2022-10-17T07:48:59.383Z,34.30
2022-10-17T07:51:27.030Z,30.50
2022-10-17T07:53:53.986Z,33.10
2022-10-17T07:56:24.720Z,32.80
2022-10-17T07:58:54.406Z,32.10
2022-10-17T08:01:21.989Z,31.90
2022-10-17T08:03:48.917Z,30.20
2022-10-17T08:06:15.880Z,26.10
2022-10-17T08:08:44.067Z,30.90
2022-10-17T08:11:14.378Z,29.30
2022-10-17T08:13:42.471Z,29.30
2022-10-17T08:16:12.752Z,27.30
2022-10-17T08:18:42.786Z,25.20
2022-10-17T08:21:13.649Z,27.80
2022-10-17T08:23:42.082Z,28.20
2022-10-17T08:26:13.517Z,25.50
2022-10-17T08:28:41.065Z,25.90
2022-10-17T08:31:15.887Z,30.40
2022-10-17T08:33:43.093Z,28.10
2022-10-17T08:36:12.398Z,27.10
2022-10-17T08:38:43.027Z,28.30
2022-10-17T08:41:52.238Z,28.10
2022-10-17T08:44:50.539Z,27.90
2022-10-17T08:47:34.471Z,25.80
2022-10-17T08:50:11.947Z,26.70
2022-10-17T08:52:49.757Z,27.10
2022-10-17T08:55:31.278Z,28.40
2022-10-17T08:57:59.440Z,30.10
2022-10-17T09:00:31.128Z,27.50
2022-10-17T09:03:07.152Z,33.00
2022-10-17T09:05:56.110Z,27.60
2022-10-17T09:08:35.721Z,27.20
2022-10-17T09:11:42.029Z,27.20
2022-10-17T09:14:26.727Z,26.40
2022-10-17T09:17:16.865Z,27.30
2022-10-17T09:19:53.471Z,28.10
2022-10-17T09:22:30.053Z,25.90
2022-10-17T09:25:09.412Z,28.40
2022-10-17T09:27:46.642Z,25.00
2022-10-17T09:30:45.288Z,25.90
2022-10-17T09:33:34.394Z,23.40
2022-10-17T09:36:09.817Z,25.70
2022-10-17T09:38:48.828Z,25.50
2022-10-17T09:44:30.380Z,26.60
2022-10-17T09:47:20.530Z,25.60
2022-10-17T09:49:49.713Z,26.90
2022-10-17T09:52:28.604Z,25.80
2022-10-17T09:55:50.436Z,28.50
2022-10-17T09:58:17.214Z,24.50
2022-10-17T10:00:47.626Z,25.20
2022-10-17T10:03:21.649Z,27.80
2022-10-17T10:06:05.089Z,25.10
2022-10-17T10:08:49.336Z,23.90
2022-10-17T10:11:18.146Z,28.00
2022-10-17T10:13:49.269Z,24.40
2022-10-17T10:16:50.652Z,22.90
2022-10-17T10:19:36.605Z,25.20
2022-10-17T10:22:31.236Z,25.10
2022-10-17T10:25:11.289Z,25.90
2022-10-17T10:27:41.550Z,27.50
2022-10-17T10:30:19.565Z,29.50
2022-10-17T10:32:49.149Z,28.20
2022-10-17T10:35:28.813Z,26.30
2022-10-17T10:37:59.690Z,34.50
2022-10-17T10:40:33.442Z,26.80
2022-10-17T10:43:05.331Z,31.60
2022-10-17T10:45:53.845Z,30.40
2022-10-17T10:48:52.182Z,28.40
2022-10-17T10:51:33.253Z,30.90
2022-10-17T10:54:16.381Z,28.00
2022-10-17T10:57:00.492Z,25.10
2022-10-17T10:59:41.186Z,31.80
2022-10-17T11:02:07.956Z,24.80
2022-10-17T11:04:47.530Z,25.90
2022-10-17T11:07:23.581Z,28.60
2022-10-17T11:10:17.873Z,26.40
2022-10-17T11:13:13.957Z,24.50
2022-10-17T11:15:51.648Z,28.20
2022-10-17T11:21:16.658Z,33.00
2022-10-17T11:24:11.775Z,31.80
2022-10-17T11:27:00.702Z,30.80
2022-10-17T11:29:35.504Z,30.20
2022-10-17T11:32:11.392Z,29.20
2022-10-17T11:34:46.333Z,31.60
2022-10-17T11:37:21.876Z,33.70
2022-10-17T11:40:02.652Z,32.70
2022-10-17T11:42:38.910Z,31.70
2022-10-17T11:45:19.117Z,30.30
2022-10-17T11:47:58.927Z,30.50
2022-10-17T11:53:34.370Z,30.10
2022-10-17T11:56:02.719Z,29.00
2022-10-17T11:58:55.613Z,27.80
2022-10-17T12:01:57.127Z,26.50
2022-10-17T12:04:51.787Z,24.60
2022-10-17T12:07:58.758Z,26.60
2022-10-17T12:11:18.780Z,24.40
2022-10-17T12:13:54.521Z,23.60
2022-10-17T12:16:21.241Z,25.70
2022-10-17T12:19:10.789Z,30.70
2022-10-17T12:22:13.262Z,34.20
2022-10-17T12:24:44.654Z,35.40
2022-10-17T12:27:45.877Z,33.70
2022-10-17T12:30:12.827Z,35.80
2022-10-17T12:33:07.087Z,35.60
2022-10-17T12:35:38.302Z,38.70
2022-10-17T12:38:21.953Z,44.60
2022-10-17T12:40:52.519Z,39.70
2022-10-17T12:43:28.582Z,42.80
2022-10-17T12:45:58.470Z,37.00
2022-10-17T12:48:34.260Z,41.60
2022-10-17T12:51:37.332Z,45.60
2022-10-17T12:54:15.845Z,45.10
2022-10-17T12:56:47.797Z,39.40
2022-10-17T12:59:22.624Z,41.60
2022-10-17T13:01:55.394Z,41.70
2022-10-17T13:04:23.600Z,46.40
2022-10-17T13:06:57.619Z,39.90
2022-10-17T13:09:42.962Z,46.20
2022-10-17T13:12:19.070Z,45.60
2022-10-17T13:14:48.012Z,43.20
2022-10-17T13:17:30.836Z,39.30
2022-10-17T13:19:58.489Z,43.60
2022-10-17T13:22:32.902Z,41.20
2022-10-17T13:25:15.346Z,42.00
2022-10-17T13:27:43.453Z,35.20
2022-10-17T13:30:35.966Z,33.80
2022-10-17T13:33:04.117Z,34.00
2022-10-17T13:38:32.527Z,37.50
2022-10-17T13:41:29.980Z,42.70
2022-10-17T13:43:51.314Z,34.00
2022-10-17T13:46:38.343Z,37.20
2022-10-17T13:49:36.680Z,36.60
2022-10-17T13:52:07.644Z,28.60
2022-10-17T13:54:42.248Z,31.50
2022-10-17T13:57:26.560Z,28.80
2022-10-17T14:00:10.029Z,29.80
2022-10-17T14:02:41.999Z,30.00
2022-10-17T14:08:12.075Z,33.00
2022-10-17T14:10:43.445Z,34.70
2022-10-17T14:13:27.482Z,34.50
2022-10-17T14:15:57.458Z,37.50
2022-10-17T14:18:35.702Z,39.40
2022-10-17T14:24:33.554Z,38.30
2022-10-17T14:27:00.725Z,37.90
2022-10-17T14:29:50.278Z,39.70
2022-10-17T14:32:19.974Z,37.90
2022-10-17T14:34:57.493Z,38.90
2022-10-17T14:37:34.662Z,35.80
2022-10-17T14:40:06.414Z,40.50
2022-10-17T14:42:40.593Z,50.40
2022-10-17T14:45:14.462Z,46.20
2022-10-17T14:47:44.128Z,54.30
2022-10-17T14:50:11.098Z,54.40
2022-10-17T14:52:39.099Z,50.80
2022-10-17T14:55:26.268Z,46.40
2022-10-17T14:57:53.436Z,45.40
2022-10-17T15:00:22.925Z,46.10
2022-10-17T15:02:52.621Z,44.40
2022-10-17T15:05:20.498Z,44.40
2022-10-17T15:07:47.457Z,45.00
2022-10-17T15:10:36.302Z,45.10
2022-10-17T15:13:38.542Z,47.00
2022-10-17T15:15:52.561Z,44.10
2022-10-17T15:18:19.995Z,53.40
2022-10-17T15:20:46.847Z,50.90
2022-10-17T15:23:13.680Z,47.70
2022-10-17T15:25:40.722Z,42.40
2022-10-17T15:28:08.117Z,47.40
2022-10-17T15:30:36.987Z,46.60
2022-10-17T15:33:04.153Z,47.40
2022-10-17T15:35:31.362Z,49.80
2022-10-17T15:37:58.429Z,43.60
2022-10-17T15:40:30.376Z,48.60
2022-10-17T15:42:57.726Z,45.00
2022-10-17T15:45:25.117Z,44.10
2022-10-17T15:47:56.942Z,43.00
2022-10-17T15:50:23.782Z,41.90
2022-10-17T15:52:51.245Z,46.20
2022-10-17T15:55:19.433Z,42.20
2022-10-17T15:57:48.985Z,42.10
2022-10-17T16:00:21.336Z,46.50
2022-10-17T16:02:49.932Z,45.30
2022-10-17T16:05:26.605Z,43.30
2022-10-17T16:07:54.724Z,45.80
2022-10-17T16:10:23.349Z,41.40
2022-10-17T16:12:50.779Z,42.80
2022-10-17T16:15:24.990Z,39.80
2022-10-17T16:17:56.413Z,39.30
2022-10-17T16:20:25.518Z,35.70
2022-10-17T16:22:59.983Z,43.20
2022-10-17T16:25:30.528Z,40.30
2022-10-17T16:28:00.477Z,36.60
2022-10-17T16:30:31.976Z,40.90
2022-10-17T16:32:59.908Z,33.50
2022-10-17T16:35:33.408Z,33.50
2022-10-17T16:38:06.489Z,34.40
2022-10-17T16:40:34.154Z,34.60
2022-10-17T16:43:00.949Z,40.30
2022-10-17T16:45:27.874Z,36.30
2022-10-17T16:47:55.300Z,35.60
2022-10-17T16:50:22.310Z,39.90
2022-10-17T16:52:49.182Z,35.10
2022-10-17T16:55:18.889Z,38.00
2022-10-17T16:57:46.144Z,37.50
2022-10-17T17:00:15.875Z,48.20
2022-10-17T17:02:43.313Z,47.60
2022-10-17T17:05:10.859Z,44.90
2022-10-17T17:07:37.694Z,55.00
2022-10-17T17:10:05.372Z,50.30
2022-10-17T17:12:35.507Z,52.60
2022-10-17T17:15:03.869Z,80.20
2022-10-17T17:17:48.751Z,76.00
2022-10-17T17:20:17.813Z,58.00
2022-10-17T17:22:44.613Z,57.80
2022-10-17T17:25:11.441Z,54.30
2022-10-17T17:27:38.248Z,63.00
2022-10-17T17:30:05.813Z,100.50
2022-10-17T17:32:33.113Z,113.40
2022-10-17T17:35:00.323Z,124.30
2022-10-17T17:37:27.410Z,127.80
2022-10-17T17:39:54.410Z,107.90
2022-10-17T17:42:21.249Z,89.30
2022-10-17T17:44:49.938Z,72.90
2022-10-17T17:47:16.788Z,61.30
2022-10-17T17:49:43.624Z,61.70
2022-10-17T17:52:10.570Z,59.40
2022-10-17T17:54:40.757Z,52.60
2022-10-17T17:57:08.073Z,59.80
2022-10-17T17:59:35.521Z,60.00
2022-10-17T18:02:03.047Z,52.80
2022-10-17T18:04:30.446Z,53.50
2022-10-17T18:06:57.441Z,52.90
2022-10-17T18:09:24.611Z,52.40
2022-10-17T18:11:52.075Z,51.20
2022-10-17T18:14:23.793Z,51.60
2022-10-17T18:16:51.724Z,53.00
2022-10-17T18:19:18.994Z,50.90
2022-10-17T18:21:48.803Z,49.90
2022-10-17T18:24:16.813Z,53.80
2022-10-17T18:26:44.347Z,61.40
2022-10-17T18:29:13.115Z,50.60
2022-10-17T18:31:40.031Z,45.00
2022-10-17T18:34:07.061Z,48.90
2022-10-17T18:36:35.632Z,50.70
2022-10-17T18:39:03.955Z,61.60
2022-10-17T18:41:32.019Z,61.20
2022-10-17T18:43:59.135Z,60.00
2022-10-17T18:46:41.055Z,54.60
2022-10-17T18:49:11.177Z,61.60
2022-10-17T18:51:38.593Z,54.30
2022-10-17T18:54:07.690Z,50.70
2022-10-17T18:56:35.267Z,48.10
2022-10-17T18:59:02.161Z,43.70
2022-10-17T19:01:29.257Z,52.40
2022-10-17T19:03:59.256Z,69.30
2022-10-17T19:06:32.001Z,83.80
2022-10-17T19:09:01.846Z,78.60
2022-10-17T19:11:31.576Z,71.80
2022-10-17T19:14:03.495Z,67.00
2022-10-17T19:16:35.718Z,67.10
2022-10-17T19:19:15.526Z,70.50
2022-10-17T19:21:43.380Z,61.90
2022-10-17T19:24:18.949Z,56.70
2022-10-17T19:26:50.358Z,60.50
2022-10-17T19:29:18.384Z,57.20
2022-10-17T19:31:46.734Z,59.50
2022-10-17T19:34:15.057Z,52.50
2022-10-17T19:36:42.499Z,58.80
2022-10-17T19:39:23.348Z,57.10
2022-10-17T19:41:50.206Z,49.60
2022-10-17T19:44:17.765Z,59.10
2022-10-17T19:46:46.906Z,50.70
2022-10-17T19:49:14.716Z,58.90
2022-10-17T19:51:41.778Z,51.50
2022-10-17T19:54:09.398Z,53.30
2022-10-17T19:56:38.292Z,56.20
2022-10-17T19:59:06.715Z,71.80
2022-10-17T20:01:39.055Z,66.70
2022-10-17T20:04:08.557Z,58.80
2022-10-17T20:06:35.777Z,62.30
2022-10-17T20:09:05.079Z,53.90
2022-10-17T20:11:32.430Z,56.30
2022-10-17T20:14:01.976Z,51.50
2022-10-17T20:16:32.598Z,51.80
2022-10-17T20:19:07.578Z,57.00
2022-10-17T20:21:36.777Z,63.80
2022-10-17T20:24:07.048Z,54.70
2022-10-17T20:26:39.629Z,56.90
2022-10-17T20:29:16.456Z,53.30
2022-10-17T20:31:45.911Z,51.10
2022-10-17T20:34:16.069Z,48.20
2022-10-17T20:36:43.613Z,46.00
2022-10-17T20:39:14.055Z,45.40
2022-10-17T20:41:41.800Z,53.70
2022-10-17T20:44:09.873Z,52.40
2022-10-17T20:46:38.477Z,47.10
2022-10-17T20:49:13.173Z,49.90
2022-10-17T20:51:40.122Z,51.90
2022-10-17T20:54:07.157Z,55.30
2022-10-17T20:56:35.620Z,51.40
2022-10-17T20:59:15.021Z,47.10
2022-10-17T21:01:42.404Z,50.30
2022-10-17T21:04:44.093Z,52.40
2022-10-17T21:06:56.978Z,47.60
2022-10-17T21:09:24.470Z,47.50
2022-10-17T21:11:55.147Z,47.20
2022-10-17T21:14:23.951Z,41.70
2022-10-17T21:16:52.386Z,32.70
2022-10-17T21:19:21.657Z,36.00
2022-10-17T21:21:48.537Z,39.40
2022-10-17T21:24:18.156Z,37.70
2022-10-17T21:26:47.826Z,37.30
2022-10-17T21:29:15.087Z,43.70
2022-10-17T21:31:44.681Z,44.20
2022-10-17T21:34:26.336Z,40.10
2022-10-17T21:36:53.316Z,35.10
2022-10-17T21:39:21.962Z,43.50
2022-10-17T21:41:48.829Z,42.20
2022-10-17T21:44:20.341Z,42.90
2022-10-17T21:46:48.034Z,48.50
2022-10-17T21:49:18.604Z,55.90
2022-10-17T21:51:47.687Z,57.90
2022-10-17T21:54:16.527Z,48.20
2022-10-17T21:56:43.746Z,46.40
2022-10-17T21:59:11.599Z,43.90
2022-10-17T22:04:13.951Z,33.20
2022-10-17T22:06:43.310Z,30.80
2022-10-17T22:09:16.277Z,34.30
2022-10-17T22:11:48.338Z,32.60
2022-10-17T22:14:18.955Z,32.10
2022-10-17T22:16:47.602Z,31.80
2022-10-17T22:19:22.059Z,35.30
2022-10-17T22:21:49.723Z,30.80
2022-10-17T22:26:51.817Z,37.00
2022-10-17T22:29:19.070Z,35.90
2022-10-17T22:31:45.996Z,25.20
2022-10-17T22:34:15.832Z,34.30
2022-10-17T22:36:43.487Z,33.20
2022-10-17T22:39:11.452Z,26.80
2022-10-17T22:44:06.775Z,31.80
2022-10-17T22:46:33.912Z,26.60
2022-10-17T22:49:00.899Z,21.90
2022-10-17T22:51:28.158Z,25.30
2022-10-17T22:53:55.058Z,21.60
2022-10-17T22:56:23.938Z,18.10
2022-10-17T22:58:51.786Z,22.50
2022-10-17T23:01:23.317Z,21.50
2022-10-17T23:03:52.030Z,20.00
2022-10-17T23:06:20.105Z,22.40
2022-10-17T23:08:47.182Z,27.80
2022-10-17T23:11:14.524Z,25.70
2022-10-17T23:13:41.465Z,28.00
2022-10-17T23:16:09.419Z,29.00
2022-10-17T23:21:04.552Z,21.60
2022-10-17T23:23:31.410Z,24.40
2022-10-17T23:26:14.125Z,24.40
2022-10-17T23:28:43.249Z,21.00
2022-10-17T23:31:17.399Z,24.60
2022-10-17T23:33:46.713Z,24.00
2022-10-17T23:36:16.555Z,39.90
2022-10-17T23:38:45.626Z,58.50
2022-10-17T23:41:13.989Z,56.10
2022-10-17T23:43:41.375Z,42.00
2022-10-17T23:46:09.650Z,45.60
2022-10-17T23:48:37.390Z,54.30
2022-10-17T23:51:06.079Z,47.20
2022-10-17T23:53:32.941Z,33.60
2022-10-17T23:55:59.886Z,35.00
2022-10-17T23:58:26.722Z,29.20
